»·PEaware :: N132KT KMMV-KTVL

N132KT :: KMMV-KTVL

FLIGHT INFORMATION

Flight Status: Arrived
Operator: Privately registered:
United States
More flights under this callsign
Pilot: Keith S. (1)
Aircraft: BEECH AIRCRAFT BARON
(BE58)
More flights by this aircraft type
Origin: KMMV McMinnville Mun
United States
Destination: KTVL Lake Tahoe
United States
More flights between these airports :: More routes between these airports
Route:
File this flight plan on PilotEdge
Remarks:
Altitude:
(Current/Filed)
9,500ft
Speed:
(Current/Filed)
165kts
Departed: 18-Jun-19 04:46 AM
Arrived: 18-Jun-19 07:03 AM
Distance/Time
Traveled:
403nm/2:17
Distance/Time
To Go:
Arrived

Flight Plot

Page will automatically refresh every two minutes.

Flight plan parsing failed; only flown route is shown


Map Options




Map Legend


Flown Route
Filed Route
Departure Airport
Arrival Airport
Navaid (VOR, NDB)
Fix

Horizontal Profiles

Position Reports

Time Latitude Longitude Heading Altitude Ground
Speed
18-Jun-19 04:40 45.199027 -123.136665 146 147ft 0kts
18-Jun-19 04:41 45.199027 -123.136666 146 147ft 0kts
18-Jun-19 04:42 45.199027 -123.136665 146 147ft 0kts
18-Jun-19 04:43 45.198280 -123.136785 69 147ft 10kts
18-Jun-19 04:44 45.200017 -123.131941 95 146ft 10kts
18-Jun-19 04:45 45.188302 -123.155764 238 355ft 140kts
18-Jun-19 04:46 45.155820 -123.171995 159 1306ft 149kts
18-Jun-19 04:47 45.117497 -123.150529 159 1832ft 150kts
18-Jun-19 04:48 45.079086 -123.128879 159 2402ft 152kts
18-Jun-19 04:49 45.039478 -123.106590 159 2978ft 156kts
18-Jun-19 04:50 44.998492 -123.083562 158 3555ft 159kts
18-Jun-19 04:51 44.956682 -123.060098 158 4122ft 163kts
18-Jun-19 04:52 44.914161 -123.036263 158 4676ft 165kts
18-Jun-19 04:53 44.871522 -123.012403 158 5188ft 167kts
18-Jun-19 04:54 44.827971 -122.988079 158 5622ft 171kts
18-Jun-19 04:55 44.783814 -122.963435 158 6350ft 170kts
18-Jun-19 04:56 44.739054 -122.938511 159 6957ft 174kts
18-Jun-19 04:57 44.693509 -122.913257 160 7465ft 181kts
18-Jun-19 04:58 44.645565 -122.886823 158 7530ft 188kts
18-Jun-19 04:59 44.599031 -122.860831 159 7751ft 181kts
18-Jun-19 05:00 44.550512 -122.834010 159 7549ft 195kts
18-Jun-19 05:01 44.500835 -122.806565 159 7514ft 188kts
18-Jun-19 05:02 44.452097 -122.779724 159 7516ft 187kts
18-Jun-19 05:03 44.403673 -122.753094 159 7514ft 187kts
18-Jun-19 05:04 44.355072 -122.726406 159 7515ft 187kts
18-Jun-19 05:05 44.306538 -122.699804 159 7515ft 187kts
18-Jun-19 05:06 44.257909 -122.673203 159 7516ft 187kts
18-Jun-19 05:07 44.209369 -122.646696 159 7515ft 187kts
18-Jun-19 05:08 44.160761 -122.620183 160 7525ft 187kts
18-Jun-19 05:09 44.112042 -122.593684 160 7525ft 187kts
18-Jun-19 05:10 44.063625 -122.567385 160 7526ft 187kts
18-Jun-19 05:11 44.015004 -122.541020 160 7526ft 187kts
18-Jun-19 05:12 43.966529 -122.514781 160 7525ft 187kts
18-Jun-19 05:13 43.917869 -122.488487 160 7526ft 187kts
18-Jun-19 05:14 43.869670 -122.462491 160 7523ft 186kts
18-Jun-19 05:15 43.821218 -122.436403 160 7523ft 186kts
18-Jun-19 05:16 43.772738 -122.410344 160 7523ft 186kts
18-Jun-19 05:17 43.724214 -122.384296 160 7522ft 186kts
18-Jun-19 05:18 43.675776 -122.358346 160 7520ft 186kts
18-Jun-19 05:19 43.627292 -122.332442 161 7509ft 186kts
18-Jun-19 05:20 43.578814 -122.306562 160 7502ft 186kts
18-Jun-19 05:21 43.530418 -122.280765 161 7496ft 186kts
18-Jun-19 05:22 43.481827 -122.254934 160 7495ft 186kts
18-Jun-19 05:23 43.433122 -122.229095 159 7496ft 187kts
18-Jun-19 05:24 43.385299 -122.203749 158 7705ft 179kts
18-Jun-19 05:25 43.338702 -122.179030 158 7951ft 179kts
18-Jun-19 05:26 43.292185 -122.154381 160 8177ft 179kts
18-Jun-19 05:27 43.245565 -122.129800 161 8409ft 179kts
18-Jun-19 05:28 43.199005 -122.105310 162 8636ft 178kts
18-Jun-19 05:29 43.152563 -122.080935 161 8849ft 179kts
18-Jun-19 05:30 43.105666 -122.056326 161 9058ft 180kts
18-Jun-19 05:31 43.058581 -122.031650 161 9265ft 181kts
18-Jun-19 05:32 43.011119 -122.006857 160 9472ft 182kts
18-Jun-19 05:33 42.963698 -121.982097 158 9685ft 182kts
18-Jun-19 05:34 42.916360 -121.957399 157 9901ft 181kts
18-Jun-19 05:35 42.870583 -121.933550 156 10092ft 179kts
18-Jun-19 05:36 42.824072 -121.909346 156 10263ft 179kts
18-Jun-19 05:37 42.776463 -121.884629 156 10210ft 189kts
18-Jun-19 05:38 42.726657 -121.858843 156 10058ft 192kts
18-Jun-19 05:39 42.676736 -121.833029 157 9929ft 192kts
18-Jun-19 05:40 42.626670 -121.807181 157 9727ft 195kts
18-Jun-19 05:41 42.575208 -121.780667 157 9433ft 195kts
18-Jun-19 05:42 42.525651 -121.755167 157 9443ft 187kts
18-Jun-19 05:43 42.477041 -121.730196 157 9444ft 186kts
18-Jun-19 05:44 42.428290 -121.705198 157 9445ft 186kts
18-Jun-19 05:45 42.379805 -121.680378 157 9445ft 186kts
18-Jun-19 05:46 42.331191 -121.655534 157 9445ft 186kts
18-Jun-19 05:47 42.282604 -121.630745 157 9437ft 186kts
18-Jun-19 05:48 42.233978 -121.605977 157 9436ft 186kts
18-Jun-19 05:49 42.185264 -121.581205 157 9437ft 186kts
18-Jun-19 05:50 42.136642 -121.556520 157 9437ft 186kts
18-Jun-19 05:51 42.088027 -121.531879 157 9437ft 186kts
18-Jun-19 05:52 42.039301 -121.507223 157 9437ft 186kts
18-Jun-19 05:53 41.990535 -121.482588 157 9438ft 186kts
18-Jun-19 05:54 41.941576 -121.457894 157 9438ft 186kts
18-Jun-19 05:55 41.894147 -121.434012 157 9435ft 186kts
18-Jun-19 05:56 41.845249 -121.409433 157 9434ft 186kts
18-Jun-19 05:57 41.796765 -121.385098 157 9434ft 186kts
18-Jun-19 05:58 41.748209 -121.360767 157 9434ft 186kts
18-Jun-19 05:59 41.700594 -121.336941 157 9433ft 186kts
18-Jun-19 06:00 41.651752 -121.312549 157 9432ft 187kts
18-Jun-19 06:01 41.602593 -121.288030 157 9430ft 188kts
18-Jun-19 06:02 41.553307 -121.263494 157 9429ft 189kts
18-Jun-19 06:03 41.503777 -121.238869 157 9428ft 190kts
18-Jun-19 06:04 41.454194 -121.214271 157 9427ft 190kts
18-Jun-19 06:05 41.404387 -121.189583 157 9427ft 191kts
18-Jun-19 06:06 41.354345 -121.164822 158 9427ft 191kts
18-Jun-19 06:07 41.304359 -121.140157 158 9427ft 191kts
18-Jun-19 06:08 41.254605 -121.115494 161 9444ft 189kts
18-Jun-19 06:09 41.205150 -121.091270 161 9445ft 188kts
18-Jun-19 06:10 41.155952 -121.067106 162 9445ft 188kts
18-Jun-19 06:11 41.106890 -121.043042 162 9446ft 187kts
18-Jun-19 06:12 41.057990 -121.019107 161 9445ft 185kts
18-Jun-19 06:13 41.009833 -120.995559 161 9446ft 183kts
18-Jun-19 06:14 40.962316 -120.972358 160 9445ft 180kts
18-Jun-19 06:15 40.915354 -120.949439 160 9445ft 179kts
18-Jun-19 06:16 40.869434 -120.927081 160 9444ft 178kts
18-Jun-19 06:17 40.822687 -120.904356 160 9445ft 178kts
18-Jun-19 06:18 40.775975 -120.881683 160 9444ft 178kts
18-Jun-19 06:19 40.729325 -120.859075 160 9444ft 178kts
18-Jun-19 06:20 40.682509 -120.836419 160 9445ft 178kts
18-Jun-19 06:21 40.635717 -120.813810 160 9445ft 178kts
18-Jun-19 06:22 40.588948 -120.791245 160 9445ft 178kts
18-Jun-19 06:23 40.542219 -120.768733 160 9445ft 178kts
18-Jun-19 06:24 40.495427 -120.746224 160 9445ft 178kts
18-Jun-19 06:25 40.448475 -120.723662 160 9438ft 179kts
18-Jun-19 06:26 40.401520 -120.701202 158 9429ft 179kts
18-Jun-19 06:27 40.354204 -120.678491 158 9423ft 181kts
18-Jun-19 06:28 40.306723 -120.655776 159 9421ft 181kts
18-Jun-19 06:29 40.259173 -120.633074 159 9424ft 182kts
18-Jun-19 06:30 40.211346 -120.610285 159 9430ft 182kts
18-Jun-19 06:31 40.163563 -120.587531 159 9434ft 182kts
18-Jun-19 06:32 40.115914 -120.564880 159 9438ft 181kts
18-Jun-19 06:33 40.068349 -120.542308 159 9443ft 181kts
18-Jun-19 06:34 40.020828 -120.519791 159 9447ft 181kts
18-Jun-19 06:35 39.973232 -120.497276 159 9446ft 181kts
18-Jun-19 06:36 39.925430 -120.474690 159 9436ft 182kts
18-Jun-19 06:37 39.881170 -120.453824 159 9425ft 182kts
18-Jun-19 06:39 39.833394 -120.431302 159 9416ft 182kts
18-Jun-19 06:40 39.785477 -120.408760 159 9420ft 182kts
18-Jun-19 06:41 39.737803 -120.386346 159 9426ft 182kts
18-Jun-19 06:42 39.690122 -120.363984 159 9429ft 181kts
18-Jun-19 06:43 39.643231 -120.342026 159 9439ft 181kts
18-Jun-19 06:44 39.595895 -120.319893 160 9453ft 180kts
18-Jun-19 06:45 39.548616 -120.297817 160 9469ft 180kts
18-Jun-19 06:46 39.501710 -120.275940 160 9485ft 179kts
18-Jun-19 06:47 39.454788 -120.254089 160 9493ft 178kts
18-Jun-19 06:48 39.407993 -120.232331 160 9494ft 179kts
18-Jun-19 06:49 39.360665 -120.210357 160 9444ft 179kts
18-Jun-19 06:50 39.313628 -120.188564 160 9445ft 178kts
18-Jun-19 06:51 39.266905 -120.166932 160 9445ft 178kts
18-Jun-19 06:52 39.219988 -120.145240 160 9445ft 178kts
18-Jun-19 06:53 39.173740 -120.140398 199 9448ft 174kts
18-Jun-19 06:54 39.125665 -120.154261 192 9442ft 177kts
18-Jun-19 06:55 39.078982 -120.139860 154 9439ft 179kts
18-Jun-19 06:56 39.034301 -120.111397 154 9436ft 179kts
18-Jun-19 06:57 38.989129 -120.082595 154 9436ft 181kts
18-Jun-19 06:57 38.952652 -120.057192 132 9382ft 180kts
18-Jun-19 06:59 38.906727 -120.010811 147 8759ft 181kts
18-Jun-19 06:59 38.893958 -119.966753 68 8304ft 171kts
18-Jun-19 07:00 38.900938 -119.981542 191 7560ft 144kts
18-Jun-19 07:02 38.877491 -119.999186 352 6686ft 123kts
18-Jun-19 07:02 38.897855 -119.994194 9 6238ft 21kts
18-Jun-19 07:03 38.896497 -119.996820 241 6238ft 5kts
18-Jun-19 07:05 38.896481 -119.996931 274 6238ft 0kts
18-Jun-19 07:05 38.896481 -119.996931 274 6238ft 0kts
18-Jun-19 07:06 38.896481 -119.996931 274 6238ft 0kts
18-Jun-19 07:07 38.895956 -119.996922 274 6238ft 0kts

Navigation Log

Ident Type
Flight plan parsing failed, navigation log unavailable